Time;durP1;ratioP1;P1;durP2;ratioP2;P2;SDS_P1;SDS_P2;PMS_P1;PMS_P2;Temp;Humidity;BMP_temperature;BMP_pressure;BME280_temperature;BME280_humidity;BME280_pressure;Samples;Min_cycle;Max_cycle;Signal;HPM_P1;HPM_P2
2022/08/20 00:00:54;;;;;;;23.02;13.23;;;;;;;25.96;65.58;100252.59;5049961;28;20052;-76
2022/08/20 00:03:26;;;;;;;24.63;14.13;;;;;;;25.96;65.69;100249.84;5051288;28;20025;-77
2022/08/20 00:06:12;;;;;;;29.70;14.68;;;;;;;25.92;66.08;100250.56;5051343;28;20021;-78
2022/08/20 00:08:38;;;;;;;30.90;15.27;;;;;;;25.90;65.68;100233.44;5051359;28;20032;-78
2022/08/20 00:11:06;;;;;;;25.55;12.88;;;;;;;25.92;65.20;100234.88;5051313;28;20240;-78
2022/08/20 00:13:38;;;;;;;20.88;11.35;;;;;;;25.97;63.98;100245.19;5051276;28;20526;-78
2022/08/20 00:16:05;;;;;;;17.83;11.43;;;;;;;25.96;63.35;100241.59;5051546;28;20021;-78
2022/08/20 00:18:31;;;;;;;15.40;11.07;;;;;;;25.85;63.57;100241.53;5051413;28;20123;-78
2022/08/20 00:20:59;;;;;;;33.45;11.88;;;;;;;25.83;63.79;100244.56;5051450;28;20014;-78
2022/08/20 00:23:25;;;;;;;23.55;11.90;;;;;;;25.83;63.79;100250.06;5051585;28;20367;-77
2022/08/20 00:25:51;;;;;;;19.52;11.77;;;;;;;25.75;64.24;100241.25;5051443;28;20025;-78
2022/08/20 00:28:17;;;;;;;21.40;12.35;;;;;;;25.73;64.39;100246.16;5051449;28;20078;-78
2022/08/20 00:30:45;;;;;;;24.40;13.18;;;;;;;25.70;64.89;100253.00;5051321;28;20096;-78
2022/08/20 00:33:17;;;;;;;22.50;13.25;;;;;;;25.60;65.23;100233.41;5051528;28;20111;-78
2022/08/20 00:35:47;;;;;;;33.55;13.23;;;;;;;25.51;65.81;100232.03;5053561;28;20500;-78
2022/08/20 00:38:13;;;;;;;22.40;13.30;;;;;;;25.46;66.23;100226.38;5055289;28;20032;-78
2022/08/20 00:40:49;;;;;;;22.40;14.00;;;;;;;25.49;66.06;100225.09;5054942;28;20033;-78
2022/08/20 00:43:46;;;;;;;23.33;12.73;;;;;;;25.48;66.66;100224.22;5055034;28;20453;-78
2022/08/20 00:46:24;;;;;;;27.83;13.23;;;;;;;25.52;66.97;100219.97;5032093;28;20033;-78
2022/08/20 00:48:54;;;;;;;24.30;14.75;;;;;;;25.45;66.79;100202.66;5054913;28;20063;-78
2022/08/20 00:51:32;;;;;;;30.08;15.13;;;;;;;25.54;66.68;100217.81;5054653;28;20053;-78
2022/08/20 00:54:36;;;;;;;23.50;14.07;;;;;;;25.53;66.18;100220.81;5054835;28;20051;-78
2022/08/20 00:57:16;;;;;;;29.85;13.55;;;;;;;25.49;66.28;100211.31;5030495;28;20047;-77
2022/08/20 00:59:42;;;;;;;22.45;13.30;;;;;;;25.42;66.43;100205.88;5054918;28;20021;-77
2022/08/20 01:02:12;;;;;;;24.75;13.13;;;;;;;25.45;65.64;100208.16;5054857;28;20529;-77
2022/08/20 01:04:37;;;;;;;23.40;12.13;;;;;;;25.40;65.16;100197.00;5054527;28;20375;-77
2022/08/20 01:07:05;;;;;;;24.52;12.77;;;;;;;25.34;65.04;100192.44;5054506;28;20120;-77
2022/08/20 01:09:32;;;;;;;21.35;11.45;;;;;;;25.38;64.71;100199.16;5054514;28;20028;-76
2022/08/20 01:11:58;;;;;;;22.52;11.55;;;;;;;25.41;64.74;100196.75;5054435;28;20443;-77
2022/08/20 01:16:53;;;;;;;19.02;10.75;;;;;;;25.49;64.21;100192.88;5054544;28;20470;-77
2022/08/20 01:19:34;;;;;;;29.27;12.63;;;;;;;25.51;63.90;100190.72;5052935;28;20036;-79
2022/08/20 01:25:09;;;;;;;16.33;11.57;;;;;;;25.46;64.08;100187.81;5054360;28;20470;-76
2022/08/20 01:27:36;;;;;;;26.50;11.95;;;;;;;25.48;64.19;100196.69;5054103;28;20032;-77
2022/08/20 01:30:03;;;;;;;19.33;12.02;;;;;;;25.52;64.01;100205.34;5054215;28;20048;-76
2022/08/20 01:32:28;;;;;;;21.90;11.65;;;;;;;25.53;64.06;100202.38;5054058;28;20557;-77
2022/08/20 01:34:54;;;;;;;17.52;11.63;;;;;;;25.50;64.11;100196.50;5054115;28;20098;-76
2022/08/20 01:37:19;;;;;;;17.85;12.38;;;;;;;25.49;63.75;100189.28;5054153;28;20131;-77
2022/08/20 01:39:45;;;;;;;26.17;11.88;;;;;;;25.49;63.97;100192.88;5054074;28;20067;-78
2022/08/20 01:42:22;;;;;;;28.65;12.70;;;;;;;25.46;63.97;100193.31;5053747;28;20378;-78
2022/08/20 01:44:48;;;;;;;22.98;11.88;;;;;;;25.43;63.99;100193.78;5052861;28;20135;-78
2022/08/20 01:47:19;;;;;;;22.67;12.63;;;;;;;25.45;64.14;100195.22;5054036;28;20166;-77
2022/08/20 01:49:50;;;;;;;28.88;13.27;;;;;;;25.41;64.16;100196.75;5053981;28;20043;-78
2022/08/20 01:52:32;;;;;;;26.73;12.97;;;;;;;25.40;64.21;100197.00;5054428;28;20041;-77
2022/08/20 01:54:58;;;;;;;18.52;11.95;;;;;;;25.30;64.47;100204.97;5053856;28;20478;-77
2022/08/20 01:57:28;;;;;;;25.85;12.80;;;;;;;25.28;64.49;100196.09;5053606;28;20163;-77
2022/08/20 01:59:54;;;;;;;20.20;11.90;;;;;;;25.26;64.56;100198.22;5053695;28;20383;-77
2022/08/20 02:02:21;;;;;;;24.13;12.35;;;;;;;25.31;64.34;100196.50;5053466;28;20017;-77
2022/08/20 02:04:46;;;;;;;21.20;12.50;;;;;;;25.27;64.47;100194.41;5053498;28;20052;-77
2022/08/20 02:07:15;;;;;;;20.05;13.20;;;;;;;25.22;64.81;100197.88;5053466;28;20450;-77
2022/08/20 02:09:43;;;;;;;19.70;11.40;;;;;;;25.16;64.84;100192.44;5053666;28;20470;-78
2022/08/20 02:12:09;;;;;;;31.00;13.15;;;;;;;25.14;64.64;100187.16;5053422;28;20095;-78
2022/08/20 02:14:43;;;;;;;20.60;11.45;;;;;;;25.23;64.26;100187.66;5053359;28;20032;-77
2022/08/20 02:17:10;;;;;;;32.22;12.40;;;;;;;25.22;64.13;100181.34;5053268;28;20053;-78
2022/08/20 02:19:40;;;;;;;33.13;11.70;;;;;;;25.20;64.25;100182.63;5053273;28;20067;-77
2022/08/20 02:22:35;;;;;;;27.35;11.23;;;;;;;25.19;63.99;100178.22;5053351;28;20060;-78
2022/08/20 02:25:01;;;;;;;23.65;10.57;;;;;;;25.22;63.92;100180.50;5053043;28;20029;-77
2022/08/20 02:27:27;;;;;;;23.00;11.65;;;;;;;25.19;63.64;100181.81;5053070;28;20445;-77
2022/08/20 02:29:53;;;;;;;16.55;10.10;;;;;;;25.24;63.60;100183.84;5053042;28;20055;-77
2022/08/20 02:32:19;;;;;;;22.55;11.85;;;;;;;25.11;63.60;100173.84;5052837;28;20025;-77
2022/08/20 02:34:45;;;;;;;20.95;10.80;;;;;;;25.07;63.79;100171.81;5052849;28;20025;-77
2022/08/20 02:37:15;;;;;;;21.60;10.98;;;;;;;25.11;64.08;100184.84;5052818;28;20174;-77
2022/08/20 02:39:41;;;;;;;22.58;10.88;;;;;;;25.08;64.27;100182.56;5052947;28;20563;-76
2022/08/20 02:42:08;;;;;;;22.20;12.10;;;;;;;25.11;64.30;100189.53;5052801;28;20025;-76
2022/08/20 02:44:34;;;;;;;18.70;12.05;;;;;;;25.08;64.65;100184.47;5052732;28;20027;-76
2022/08/20 02:47:00;;;;;;;27.20;14.07;;;;;;;25.02;65.16;100182.63;5052716;28;20101;-77
2022/08/20 02:49:26;;;;;;;38.72;13.35;;;;;;;24.98;65.37;100186.94;5052505;28;20440;-76
2022/08/20 02:51:51;;;;;;;20.73;12.55;;;;;;;24.94;65.45;100183.81;5052407;28;20131;-77
2022/08/20 02:54:17;;;;;;;19.33;13.30;;;;;;;24.99;65.20;100191.34;5052555;28;20053;-76
2022/08/20 02:56:43;;;;;;;20.60;12.70;;;;;;;24.99;65.05;100194.09;5052072;28;20398;-77
2022/08/20 02:59:08;;;;;;;26.77;13.05;;;;;;;24.99;65.03;100192.19;5052471;28;20029;-77
2022/08/20 03:01:35;;;;;;;42.45;14.27;;;;;;;24.86;65.32;100189.63;5052051;28;20112;-77
2022/08/20 03:04:02;;;;;;;21.15;12.15;;;;;;;24.84;65.61;100187.09;5051548;28;20028;-77
2022/08/20 03:06:28;;;;;;;20.60;12.93;;;;;;;24.88;65.39;100184.72;5052105;28;20100;-77
2022/08/20 03:08:54;;;;;;;22.42;12.32;;;;;;;24.92;65.38;100187.84;5052311;28;20164;-77
2022/08/20 03:11:19;;;;;;;21.00;11.82;;;;;;;24.92;65.03;100187.84;5052203;28;20094;-77
2022/08/20 03:13:46;;;;;;;25.13;11.82;;;;;;;24.88;64.79;100177.31;5052133;28;20462;-77
2022/08/20 03:16:11;;;;;;;24.70;11.82;;;;;;;24.92;64.94;100185.09;5052025;28;20036;-77
2022/08/20 03:18:41;;;;;;;32.47;12.43;;;;;;;24.94;65.16;100188.47;5051948;28;20406;-77
2022/08/20 03:21:08;;;;;;;24.38;13.00;;;;;;;24.90;65.15;100188.91;5052125;28;20028;-77
2022/08/20 03:23:36;;;;;;;22.95;13.60;;;;;;;24.90;65.46;100188.91;5052168;28;20029;-77
2022/08/20 03:26:04;;;;;;;28.27;13.38;;;;;;;24.93;65.47;100182.09;5051944;28;20021;-77
2022/08/20 03:28:30;;;;;;;35.20;14.02;;;;;;;24.95;65.22;100181.91;5052026;28;20032;-77
2022/08/20 03:30:58;;;;;;;25.42;12.80;;;;;;;24.95;64.99;100187.41;5051804;28;20386;-77
2022/08/20 03:33:24;;;;;;;36.55;14.63;;;;;;;24.96;65.17;100180.81;5051925;28;20436;-77
2022/08/20 03:35:49;;;;;;;27.40;13.85;;;;;;;24.92;65.13;100185.09;5051872;28;20497;-77
2022/08/20 03:38:16;;;;;;;36.97;12.95;;;;;;;24.92;65.26;100186.75;5051890;28;20025;-77
2022/08/20 03:40:44;;;;;;;35.63;16.10;;;;;;;24.89;65.04;100176.22;5051753;28;20048;-77
2022/08/20 03:43:10;;;;;;;25.17;14.23;;;;;;;25.02;65.03;100200.00;5051717;28;20094;-77
2022/08/20 03:45:38;;;;;;;32.60;14.25;;;;;;;24.96;64.92;100195.41;5051660;28;20029;-77
2022/08/20 03:48:06;;;;;;;26.90;14.25;;;;;;;24.96;64.94;100191.81;5051521;28;20104;-78
2022/08/20 03:50:33;;;;;;;18.95;12.10;;;;;;;24.92;65.01;100184.00;5051519;28;20068;-77
2022/08/20 03:52:59;;;;;;;19.17;13.20;;;;;;;24.95;64.93;100187.41;5051591;28;20029;-76
2022/08/20 03:55:26;;;;;;;25.77;12.52;;;;;;;24.96;64.91;100189.06;5051543;28;20035;-77
2022/08/20 03:57:57;;;;;;;25.00;12.65;;;;;;;24.92;65.08;100191.47;5050137;28;20036;-77
2022/08/20 04:00:26;;;;;;;26.10;12.80;;;;;;;25.01;64.89;100192.00;5051609;28;20463;-77
2022/08/20 04:02:52;;;;;;;34.55;14.57;;;;;;;24.98;64.87;100195.19;5051584;28;20017;-77
2022/08/20 04:05:17;;;;;;;21.85;11.73;;;;;;;25.05;64.83;100202.28;5051635;28;20021;-76
2022/08/20 04:07:43;;;;;;;26.77;13.57;;;;;;;25.06;64.84;100194.88;5051572;28;20025;-77
2022/08/20 04:10:11;;;;;;;25.45;13.43;;;;;;;25.09;64.69;100208.19;5054366;28;20482;-76
2022/08/20 04:12:40;;;;;;;31.35;13.90;;;;;;;25.06;64.87;100197.63;5055881;28;20037;-76
2022/08/20 04:15:12;;;;;;;26.80;14.98;;;;;;;25.07;64.94;100199.31;5055609;28;20025;-76
2022/08/20 04:17:43;;;;;;;34.42;19.27;;;;;;;25.08;64.86;100199.06;5055616;28;20462;-76
2022/08/20 04:20:21;;;;;;;30.27;17.85;;;;;;;25.14;64.92;100200.91;5055443;28;20036;-75
2022/08/20 04:22:47;;;;;;;43.67;19.58;;;;;;;25.14;64.70;100194.56;5055386;28;20430;-76
2022/08/20 04:25:12;;;;;;;32.85;19.45;;;;;;;25.15;64.88;100196.25;5055728;28;20104;-76
2022/08/20 04:27:39;;;;;;;40.15;20.60;;;;;;;25.19;64.72;100203.00;5055319;28;20083;-76
2022/08/20 04:30:09;;;;;;;56.90;31.50;;;;;;;25.20;64.87;100202.75;5055403;28;20108;-77
2022/08/20 04:32:38;;;;;;;54.83;21.75;;;;;;;25.22;64.81;100206.13;5055429;28;20063;-76
2022/08/20 04:35:06;;;;;;;55.80;19.73;;;;;;;25.26;65.07;100212.84;5055448;28;20478;-75
2022/08/20 04:37:32;;;;;;;55.05;19.95;;;;;;;25.35;64.97;100207.88;5055286;28;20104;-77
2022/08/20 04:42:48;;;;;;;59.55;29.27;;;;;;;25.36;64.71;100212.28;5053208;28;20104;-77
2022/08/20 04:45:13;;;;;;;53.25;28.63;;;;;;;25.38;64.96;100212.94;5055576;28;20112;-77
2022/08/20 04:47:40;;;;;;;60.53;29.13;;;;;;;25.33;64.54;100218.25;5055042;28;20060;-78
2022/08/20 04:50:08;;;;;;;61.53;30.90;;;;;;;25.26;63.11;100203.72;5054587;28;20033;-77
2022/08/20 04:52:33;;;;;;;61.95;37.42;;;;;;;25.38;64.61;100211.00;5053407;28;20031;-78
2022/08/20 04:54:59;;;;;;;68.70;40.45;;;;;;;25.35;64.88;100207.88;5053178;28;20496;-75
2022/08/20 04:57:25;;;;;;;88.93;47.83;;;;;;;25.44;65.08;100214.75;5052995;28;20024;-75
2022/08/20 04:59:52;;;;;;;92.80;50.95;;;;;;;25.45;65.68;100210.91;5053512;28;20502;-76
2022/08/20 05:02:18;;;;;;;86.90;47.70;;;;;;;25.42;65.53;100209.47;5053162;28;20489;-76
2022/08/20 05:04:43;;;;;;;75.07;47.65;;;;;;;25.41;66.13;100210.53;5053062;28;20025;-75
2022/08/20 05:07:14;;;;;;;90.18;50.33;;;;;;;25.54;65.74;100217.81;5052992;28;20017;-76
2022/08/20 05:09:41;;;;;;;71.72;48.08;;;;;;;25.59;65.87;100217.97;5053175;28;20023;-77
2022/08/20 05:12:07;;;;;;;97.55;51.10;;;;;;;25.66;65.47;100210.44;5053021;28;20028;-76
2022/08/20 05:14:32;;;;;;;79.95;48.80;;;;;;;25.77;65.07;100222.59;5052881;28;20490;-76
2022/08/20 05:17:03;;;;;;;86.13;50.85;;;;;;;25.82;64.77;100218.06;5052774;28;20114;-83
2022/08/20 05:19:30;;;;;;;95.15;52.10;;;;;;;25.94;64.37;100218.94;5050100;28;20032;-77
2022/08/20 05:21:58;;;;;;;85.57;50.53;;;;;;;26.01;64.30;100221.59;5052923;28;20032;-77
2022/08/20 05:24:28;;;;;;;89.85;47.78;;;;;;;26.11;64.19;100219.13;5052666;28;20021;-78
2022/08/20 05:26:54;;;;;;;92.32;53.05;;;;;;;26.18;63.86;100227.28;5052717;28;20154;-77
2022/08/20 05:29:22;;;;;;;84.13;49.83;;;;;;;26.25;63.60;100225.28;5052275;28;20028;-76
2022/08/20 05:31:55;;;;;;;86.53;50.53;;;;;;;26.36;63.53;100210.69;5052590;28;20021;-75
2022/08/20 05:34:21;;;;;;;92.70;53.42;;;;;;;26.44;63.41;100213.09;5052717;28;20025;-75
2022/08/20 05:36:50;;;;;;;77.07;49.38;;;;;;;26.54;63.09;100207.00;5052928;28;20048;-74
2022/08/20 05:39:18;;;;;;;84.85;50.92;;;;;;;26.62;63.08;100201.94;5052897;28;20170;-74
2022/08/20 05:41:43;;;;;;;93.10;52.00;;;;;;;26.71;63.04;100202.44;5052735;28;20379;-74
2022/08/20 05:44:12;;;;;;;113.75;53.70;;;;;;;26.81;62.61;100202.72;5052474;28;20479;-73
2022/08/20 05:46:42;;;;;;;101.95;54.72;;;;;;;26.92;62.62;100197.16;5052627;28;20025;-74
2022/08/20 05:49:09;;;;;;;101.35;56.65;;;;;;;26.95;62.21;100198.59;5053088;28;20025;-80
2022/08/20 05:51:35;;;;;;;111.68;54.92;;;;;;;26.98;62.46;100198.13;5012547;28;1197787;-86
2022/08/20 05:54:02;;;;;;;115.65;58.40;;;;;;;27.03;62.48;100190.78;5055830;28;20510;-84
2022/08/20 05:56:31;;;;;;;92.25;54.70;;;;;;;27.12;62.32;100190.44;5055225;28;20095;-77
2022/08/20 05:59:03;;;;;;;103.85;55.45;;;;;;;27.22;61.89;100187.84;5054275;28;20100;-80
2022/08/20 06:01:30;;;;;;;98.20;50.80;;;;;;;27.19;60.99;100174.53;5053869;28;20028;-80
2022/08/20 06:06:40;;;;;;;76.30;44.70;;;;;;;27.43;60.65;100174.25;5054180;28;20493;-81
2022/08/20 06:09:05;;;;;;;82.25;46.38;;;;;;;27.58;60.34;100175.66;5053764;28;20025;-82
2022/08/20 06:11:31;;;;;;;80.15;40.17;;;;;;;27.65;60.15;100185.47;5054592;28;20025;-81
2022/08/20 06:13:56;;;;;;;58.17;32.90;;;;;;;27.75;59.29;100179.31;5052231;28;20025;-79
2022/08/20 06:16:22;;;;;;;67.63;32.83;;;;;;;27.80;58.74;100180.22;5054677;28;20029;-83
2022/08/20 06:18:48;;;;;;;65.57;31.45;;;;;;;27.88;58.75;100174.31;5052810;28;20063;-81
2022/08/20 06:21:13;;;;;;;69.70;29.98;;;;;;;27.95;58.41;100182.47;5053669;28;20095;-84
2022/08/20 06:23:39;;;;;;;67.68;29.27;;;;;;;28.05;58.12;100175.19;5053898;28;20031;-79
2022/08/20 06:26:06;;;;;;;45.60;22.85;;;;;;;28.12;57.10;100176.97;5053943;28;20056;-83
2022/08/20 06:28:31;;;;;;;32.60;18.75;;;;;;;28.19;56.58;100184.03;5053714;28;20029;-81
2022/08/20 06:31:00;;;;;;;36.15;18.10;;;;;;;28.29;56.38;100186.09;5053582;28;20028;-80
2022/08/20 06:33:26;;;;;;;31.60;18.58;;;;;;;28.38;55.90;100187.34;5053127;28;20021;-81
2022/08/20 06:35:52;;;;;;;47.92;17.65;;;;;;;28.43;55.66;100193.00;5053665;28;20025;-84
2022/08/20 06:38:18;;;;;;;36.70;17.25;;;;;;;28.49;55.61;100191.97;5053072;28;20135;-77
2022/08/20 06:40:45;;;;;;;47.83;21.80;;;;;;;28.57;54.64;100191.53;5052726;28;20028;-76
2022/08/20 06:43:10;;;;;;;35.88;14.75;;;;;;;28.68;54.85;100203.66;5052693;28;20174;-77
2022/08/20 06:45:37;;;;;;;28.88;13.38;;;;;;;28.76;54.65;100192.16;5052867;28;20474;-81
2022/08/20 06:48:07;;;;;;;30.80;13.90;;;;;;;28.81;54.06;100194.97;5052721;28;20060;-82
2022/08/20 06:50:38;;;;;;;34.22;14.77;;;;;;;28.90;54.01;100197.06;5052660;28;20047;-83
2022/08/20 06:53:16;;;;;;;30.08;13.88;;;;;;;28.94;53.76;100189.09;5051448;28;20041;-81
2022/08/20 06:55:46;;;;;;;25.08;11.07;;;;;;;29.02;53.30;100189.47;5052504;28;20029;-78
2022/08/20 06:58:11;;;;;;;43.95;12.27;;;;;;;29.09;53.31;100192.91;5052683;28;20025;-78
2022/08/20 07:00:40;;;;;;;32.28;13.23;;;;;;;29.15;53.18;100197.41;5052262;28;20036;-77
2022/08/20 07:03:05;;;;;;;28.60;12.80;;;;;;;29.24;52.86;100197.00;5052566;28;20029;-81
2022/08/20 07:05:34;;;;;;;22.88;10.10;;;;;;;29.25;52.09;100188.44;5052979;28;20036;-82
2022/08/20 07:08:00;;;;;;;21.73;8.52;;;;;;;29.33;51.08;100203.75;5053349;28;20036;-82
2022/08/20 07:10:29;;;;;;;23.25;8.02;;;;;;;29.20;51.35;100179.19;5052586;28;20036;-82
2022/08/20 07:12:55;;;;;;;23.92;9.43;;;;;;;29.26;51.40;100198.44;5052363;28;20043;-81
2022/08/20 07:15:24;;;;;;;31.33;8.73;;;;;;;29.32;51.94;100202.09;5051990;28;20497;-82
2022/08/20 07:17:53;;;;;;;24.15;8.20;;;;;;;29.36;51.51;100183.84;5051775;28;20029;-82
2022/08/20 07:20:19;;;;;;;22.42;8.95;;;;;;;29.53;51.10;100195.72;5049274;28;20494;-81
2022/08/20 07:22:46;;;;;;;14.15;7.82;;;;;;;29.49;51.01;100194.53;5051020;28;20029;-82
2022/08/20 07:25:15;;;;;;;20.67;8.57;;;;;;;29.59;50.90;100201.06;5050770;28;20025;-83
2022/08/20 07:27:40;;;;;;;33.78;8.73;;;;;;;29.65;50.31;100201.94;5051265;28;20020;-83
2022/08/20 07:32:53;;;;;;;55.10;9.15;;;;;;;29.59;50.56;100195.53;5051467;28;20132;-83
2022/08/20 07:35:19;;;;;;;14.52;8.27;;;;;;;29.59;50.73;100194.69;5051852;28;20028;-82
2022/08/20 07:37:47;;;;;;;18.33;8.05;;;;;;;29.70;50.50;100190.91;5051840;28;20498;-82
2022/08/20 07:40:17;;;;;;;27.02;8.95;;;;;;;29.76;50.42;100186.25;5051429;28;20029;-83
2022/08/20 07:42:42;;;;;;;23.83;8.98;;;;;;;29.68;51.11;100187.56;5051845;28;20075;-81
2022/08/20 07:45:10;;;;;;;27.30;9.00;;;;;;;29.77;51.00;100186.00;5052832;28;20029;-83
2022/08/20 07:47:38;;;;;;;34.00;7.95;;;;;;;29.95;50.47;100187.59;5052327;28;20044;-84
2022/08/20 07:50:05;;;;;;;19.35;7.53;;;;;;;29.83;50.10;100182.22;5052670;28;20055;-83
2022/08/20 07:52:30;;;;;;;25.00;7.75;;;;;;;29.90;49.83;100184.78;5052243;28;20040;-82
2022/08/20 07:54:55;;;;;;;17.77;7.75;;;;;;;29.85;49.77;100185.56;5052826;28;20021;-82
2022/08/20 07:57:21;;;;;;;36.72;7.65;;;;;;;29.91;49.62;100186.44;5054919;28;20056;-82
2022/08/20 07:59:47;;;;;;;24.60;8.18;;;;;;;29.91;50.12;100192.81;5052999;28;20025;-83
2022/08/20 08:02:13;;;;;;;17.02;8.10;;;;;;;29.96;50.05;100192.06;5052965;28;20053;-83
2022/08/20 08:04:39;;;;;;;13.93;7.78;;;;;;;29.98;50.12;100193.47;5052104;28;20451;-85
2022/08/20 08:07:05;;;;;;;21.48;8.23;;;;;;;30.11;49.77;100193.03;5052608;28;20021;-83
2022/08/20 08:09:32;;;;;;;27.10;8.32;;;;;;;30.04;50.75;100191.56;5052418;28;20078;-83
2022/08/20 08:12:01;;;;;;;16.52;8.95;;;;;;;30.02;51.18;100189.06;5052094;28;20020;-83
2022/08/20 08:14:30;;;;;;;22.05;10.23;;;;;;;30.03;51.08;100176.84;5051982;28;20391;-83
2022/08/20 08:17:01;;;;;;;26.23;8.80;;;;;;;30.29;50.57;100188.19;5052155;28;20060;-83
2022/08/20 08:19:37;;;;;;;30.42;9.63;;;;;;;30.37;50.94;100190.47;5052711;28;20025;-84
2022/08/20 08:22:04;;;;;;;30.38;9.43;;;;;;;30.43;51.63;100189.44;5052150;28;20096;-82
2022/08/20 08:24:29;;;;;;;26.73;11.25;;;;;;;30.53;51.73;100183.97;5051607;28;20039;-83
2022/08/20 08:26:55;;;;;;;20.88;9.00;;;;;;;30.57;51.55;100174.03;5051689;28;20017;-83
2022/08/20 08:29:20;;;;;;;29.08;9.15;;;;;;;30.57;51.79;100171.25;5051524;28;20021;-80
2022/08/20 08:31:46;;;;;;;23.80;8.75;;;;;;;30.61;51.62;100173.19;5051123;28;20032;-76
2022/08/20 08:34:12;;;;;;;29.65;8.18;;;;;;;30.66;51.63;100173.25;5051060;28;20087;-83
2022/08/20 08:36:38;;;;;;;16.05;7.93;;;;;;;30.66;51.35;100166.88;5051508;28;20023;-81
2022/08/20 08:39:04;;;;;;;38.75;8.70;;;;;;;30.73;50.83;100173.84;5050194;28;20047;-78
2022/08/20 08:41:35;;;;;;;22.10;8.15;;;;;;;30.60;50.53;100170.72;5051364;28;20021;-82
2022/08/20 08:44:26;;;;;;;21.02;8.27;;;;;;;30.65;50.27;100176.28;5051629;28;20056;-77
2022/08/20 08:47:01;;;;;;;32.80;8.10;;;;;;;30.75;51.66;100162.47;5051120;28;20032;-77
2022/08/20 08:49:34;;;;;;;17.80;9.00;;;;;;;30.70;51.49;100170.78;5051236;28;20044;-78
2022/08/20 08:52:11;;;;;;;24.17;8.48;;;;;;;30.58;52.75;100170.16;5051274;28;20041;-77
2022/08/20 08:54:45;;;;;;;18.40;7.70;;;;;;;30.40;52.29;100167.75;5051360;28;20025;-78
2022/08/20 08:57:11;;;;;;;17.70;8.45;;;;;;;30.27;52.96;100165.44;5054633;28;20021;-78
2022/08/20 08:59:36;;;;;;;20.77;8.73;;;;;;;30.25;53.26;100165.69;5054850;28;20056;-82
2022/08/20 09:02:02;;;;;;;15.18;7.10;;;;;;;30.37;51.92;100173.81;5053620;28;20441;-83
2022/08/20 09:04:34;;;;;;;16.40;8.35;;;;;;;30.45;52.25;100165.88;5055185;28;20017;-82
2022/08/20 09:07:03;;;;;;;21.45;8.52;;;;;;;30.55;50.88;100173.47;5054675;28;20033;-80
2022/08/20 09:09:35;;;;;;;13.50;8.35;;;;;;;30.61;51.50;100170.44;5054262;28;20040;-78
2022/08/20 09:12:07;;;;;;;21.08;9.70;;;;;;;30.66;53.02;100167.72;5054122;28;20463;-78
2022/08/20 09:14:33;;;;;;;20.63;9.50;;;;;;;30.58;53.36;100173.75;5054464;28;20025;-78
2022/08/20 09:16:58;;;;;;;15.30;9.00;;;;;;;30.51;54.31;100175.09;5053070;28;20136;-82
2022/08/20 09:19:24;;;;;;;27.75;8.90;;;;;;;30.38;53.26;100169.94;5054464;28;20031;-81
2022/08/20 09:21:49;;;;;;;21.05;9.32;;;;;;;30.31;54.54;100169.31;5054341;28;20394;-79
2022/08/20 09:24:15;;;;;;;23.02;8.25;;;;;;;30.38;54.69;100175.50;5052834;28;20089;-82
2022/08/20 09:26:41;;;;;;;26.40;8.02;;;;;;;30.42;53.52;100171.13;5054528;28;20087;-82
2022/08/20 09:29:06;;;;;;;14.18;8.23;;;;;;;30.37;51.05;100162.72;5054798;28;20025;-82
2022/08/20 09:31:32;;;;;;;27.65;8.77;;;;;;;30.24;49.73;100166.81;5054399;28;20096;-81
2022/08/20 09:33:57;;;;;;;21.35;8.95;;;;;;;30.21;51.27;100168.13;5054253;28;20024;-82
2022/08/20 09:36:22;;;;;;;22.58;8.38;;;;;;;30.28;51.72;100175.41;5054207;28;20604;-78
2022/08/20 09:38:48;;;;;;;21.15;8.82;;;;;;;30.27;53.27;100163.50;5054189;28;20021;-81
2022/08/20 09:41:13;;;;;;;20.80;8.90;;;;;;;30.45;53.70;100177.00;5054471;28;20036;-78
2022/08/20 09:43:39;;;;;;;68.32;13.68;;;;;;;30.58;52.71;100156.28;5054088;28;20032;-82
2022/08/20 09:46:04;;;;;;;26.10;9.18;;;;;;;30.63;52.65;100164.63;5053691;28;20040;-78
2022/08/20 09:48:30;;;;;;;20.17;8.77;;;;;;;30.60;53.24;100154.06;5053765;28;20367;-78
2022/08/20 09:50:56;;;;;;;17.83;10.55;;;;;;;30.51;55.43;100152.88;5053925;28;20148;-77
2022/08/20 09:53:22;;;;;;;27.63;10.35;;;;;;;30.54;55.98;100157.91;5053854;28;20460;-80
2022/08/20 09:55:51;;;;;;;22.77;11.02;;;;;;;30.60;55.71;100154.06;5053995;28;20112;-80
2022/08/20 09:58:22;;;;;;;22.00;9.63;;;;;;;30.54;55.99;100146.78;5054070;28;20032;-80
2022/08/20 10:00:48;;;;;;;23.13;9.73;;;;;;;30.61;55.25;100145.44;5060081;28;20036;-80
2022/08/20 10:03:15;;;;;;;26.50;10.80;;;;;;;30.68;55.84;100142.44;5056062;28;20021;-78
2022/08/20 10:05:40;;;;;;;34.50;12.75;;;;;;;30.78;55.93;100142.50;5053416;28;20086;-78
2022/08/20 10:08:08;;;;;;;20.85;11.77;;;;;;;30.87;55.38;100148.38;5052546;28;20028;-79
2022/08/20 10:10:34;;;;;;;20.10;10.20;;;;;;;30.78;52.73;100148.06;5053193;28;20113;-78
2022/08/20 10:12:59;;;;;;;19.98;12.65;;;;;;;30.75;54.55;100143.03;5053243;28;20112;-78
2022/08/20 10:15:25;;;;;;;31.35;13.10;;;;;;;30.63;54.96;100134.09;5053091;28;20108;-76
2022/08/20 10:17:51;;;;;;;28.70;14.20;;;;;;;30.53;56.74;100143.19;5053279;28;20025;-77
2022/08/20 10:20:18;;;;;;;29.27;12.27;;;;;;;30.44;56.07;100132.84;5054109;28;20051;-80
2022/08/20 10:22:44;;;;;;;29.38;14.07;;;;;;;30.62;56.67;100140.72;5054846;28;20056;-81
2022/08/20 10:25:10;;;;;;;23.75;11.32;;;;;;;30.49;54.84;100138.41;5055007;28;20471;-77
2022/08/20 10:27:37;;;;;;;31.75;13.00;;;;;;;30.39;54.55;100141.13;5053409;28;20522;-77
2022/08/20 10:30:04;;;;;;;28.73;9.45;;;;;;;30.45;53.13;100148.41;5053841;28;20028;-79
2022/08/20 10:32:29;;;;;;;26.25;11.55;;;;;;;30.57;53.98;100140.72;5053578;28;20033;-81
2022/08/20 10:34:55;;;;;;;33.17;11.60;;;;;;;30.57;54.78;100146.25;5054405;28;20025;-84
2022/08/20 10:37:22;;;;;;;29.73;13.60;;;;;;;30.66;56.67;100139.09;5054507;28;20403;-83
2022/08/20 10:39:48;;;;;;;25.10;13.20;;;;;;;30.65;56.65;100131.88;5055685;28;20474;-85
2022/08/20 10:42:14;;;;;;;24.90;15.38;;;;;;;30.66;57.86;100141.88;5055755;28;20035;-89
2022/08/20 10:44:39;;;;;;;21.30;13.15;;;;;;;30.52;57.15;100140.69;5055457;28;20060;-84
2022/08/20 10:47:27;;;;;;;21.63;13.00;;;;;;;30.54;55.85;100136.53;5054897;28;20120;-86
2022/08/20 10:49:54;;;;;;;30.27;15.57;;;;;;;30.60;57.24;100140.16;5054096;28;20024;-80
2022/08/20 10:52:21;;;;;;;34.38;14.77;;;;;;;30.67;57.52;100146.34;5054944;28;20041;-82
2022/08/20 10:54:47;;;;;;;24.10;14.00;;;;;;;30.79;57.89;100127.53;5053736;28;20048;-81
2022/08/20 10:57:18;;;;;;;23.42;13.23;;;;;;;30.99;56.62;100144.31;5053651;28;20032;-81
2022/08/20 10:59:46;;;;;;;19.77;11.30;;;;;;;30.89;55.75;100138.66;5053842;28;20029;-80
2022/08/20 11:02:12;;;;;;;32.88;12.27;;;;;;;30.95;57.09;100132.06;5053472;28;20029;-79
2022/08/20 11:04:39;;;;;;;18.48;10.60;;;;;;;31.11;55.83;100139.38;5052970;28;20062;-79
2022/08/20 11:07:25;;;;;;;28.67;10.63;;;;;;;31.24;55.02;100135.25;5051750;28;20589;-78
2022/08/20 11:09:50;;;;;;;16.33;8.95;;;;;;;31.32;54.93;100120.81;5053261;28;20033;-82
2022/08/20 11:12:18;;;;;;;15.60;9.32;;;;;;;31.41;52.81;100123.91;5053678;28;20445;-82
2022/08/20 11:14:44;;;;;;;19.45;9.95;;;;;;;31.35;53.47;100125.00;5053395;28;20021;-78
2022/08/20 11:17:10;;;;;;;14.50;9.88;;;;;;;31.39;54.73;100124.19;5053734;28;20055;-81
2022/08/20 11:19:41;;;;;;;28.63;14.50;;;;;;;31.29;57.28;100125.00;5053556;28;20532;-78
2022/08/20 11:22:09;;;;;;;20.13;11.20;;;;;;;30.89;58.16;100124.78;5053048;28;20082;-77
2022/08/20 11:24:35;;;;;;;15.50;10.75;;;;;;;31.08;57.58;100120.47;5052798;28;20114;-77
2022/08/20 11:27:01;;;;;;;22.08;10.23;;;;;;;31.23;56.87;100126.06;5052572;28;20035;-80
2022/08/20 11:29:27;;;;;;;24.88;10.77;;;;;;;31.36;57.13;100118.34;5053499;28;20064;-82